CFG1AY EGKK-EDDF
Flight info
| Callsign | CFG1AY |
|---|---|
| Flight time | 0h 55m |
| Altitude | 37000 |
| Route | MIMFO Y312 DVR UL9 KONAN UL607 SPI T180 NIVNU/N0401F230 T847 IMCOM IMCOM2C |
| Aircraft | E190/M-SDE3GILORVW/S |
Departure
| Time | 2026-04-14 12:05 |
|---|---|
| Airport | London Gatwick Airport (EGKK) |
Arrival
| Time | 2026-04-14 13:01 |
|---|---|
| Airport | Frankfurt Main Airport (EDDF) |
| Time | Latitude | Longitude | Altitude | Speed | Heading |
|---|---|---|---|---|---|
| 2026-04-14 11:54 | 51.15532 | -0.16601 | 204 ft | 0 kts | 348° |
| 2026-04-14 11:58 | 51.15531 | -0.16601 | 204 ft | 1 kts | 348° |
| 2026-04-14 11:58 | 51.15514 | -0.16595 | 213 ft | 3 kts | 342° |
| 2026-04-14 11:58 | 51.15495 | -0.16584 | 208 ft | 3 kts | 332° |
| 2026-04-14 11:59 | 51.15478 | -0.16567 | 212 ft | 3 kts | 313° |
| 2026-04-14 11:59 | 51.15468 | -0.16544 | 213 ft | 3 kts | 273° |
| 2026-04-14 11:59 | 51.15468 | -0.16529 | 204 ft | 1 kts | 259° |
| 2026-04-14 11:59 | 51.15468 | -0.16526 | 204 ft | 0 kts | 259° |
| 2026-04-14 12:01 | 51.15468 | -0.16528 | 204 ft | 1 kts | 259° |
| 2026-04-14 12:02 | 51.15466 | -0.16549 | 209 ft | 3 kts | 259° |
| 2026-04-14 12:02 | 51.15460 | -0.16594 | 209 ft | 5 kts | 258° |
| 2026-04-14 12:02 | 51.15450 | -0.16661 | 208 ft | 7 kts | 258° |
| 2026-04-14 12:02 | 51.15429 | -0.16722 | 209 ft | 6 kts | 202° |
| 2026-04-14 12:03 | 51.15391 | -0.16737 | 204 ft | 6 kts | 224° |
| 2026-04-14 12:03 | 51.15372 | -0.16802 | 212 ft | 7 kts | 228° |
| 2026-04-14 12:03 | 51.15323 | -0.16813 | 204 ft | 8 kts | 186° |
| 2026-04-14 12:03 | 51.15268 | -0.16825 | 208 ft | 8 kts | 178° |
| 2026-04-14 12:04 | 51.15211 | -0.16806 | 210 ft | 8 kts | 167° |
| 2026-04-14 12:04 | 51.15152 | -0.16789 | 205 ft | 9 kts | 175° |
| 2026-04-14 12:04 | 51.15117 | -0.16832 | 204 ft | 7 kts | 250° |
| 2026-04-14 12:04 | 51.15107 | -0.16913 | 207 ft | 10 kts | 258° |
| 2026-04-14 12:05 | 51.15064 | -0.17228 | 206 ft | 60 kts | 258° |
| 2026-04-14 12:05 | 51.14931 | -0.18206 | 207 ft | 120 kts | 257° |
| 2026-04-14 12:05 | 51.14729 | -0.19741 | 301 ft | 154 kts | 253° |
| 2026-04-14 12:05 | 51.14499 | -0.21485 | 805 ft | 170 kts | 251° |
| 2026-04-14 12:06 | 51.14261 | -0.23393 | 1414 ft | 180 kts | 254° |
| 2026-04-14 12:06 | 51.14030 | -0.25368 | 2045 ft | 183 kts | 251° |
| 2026-04-14 12:06 | 51.13806 | -0.27383 | 2668 ft | 189 kts | 262° |
| 2026-04-14 12:06 | 51.14089 | -0.29501 | 3231 ft | 208 kts | 291° |
| 2026-04-14 12:07 | 51.15099 | -0.31237 | 3762 ft | 227 kts | 324° |
| 2026-04-14 12:07 | 51.16659 | -0.31820 | 4309 ft | 238 kts | 1° |
| 2026-04-14 12:07 | 51.18260 | -0.30986 | 4492 ft | 245 kts | 36° |
| 2026-04-14 12:07 | 51.19629 | -0.29373 | 5124 ft | 246 kts | 43° |
| 2026-04-14 12:08 | 51.20609 | -0.27170 | 5634 ft | 245 kts | 73° |
| 2026-04-14 12:08 | 51.20843 | -0.24516 | 6155 ft | 243 kts | 93° |
| 2026-04-14 12:08 | 51.20827 | -0.21796 | 6634 ft | 250 kts | 95° |
| 2026-04-14 12:08 | 51.20783 | -0.18962 | 7001 ft | 268 kts | 95° |
| 2026-04-14 12:09 | 51.20727 | -0.15905 | 7339 ft | 285 kts | 95° |
| 2026-04-14 12:09 | 51.20683 | -0.12699 | 7910 ft | 291 kts | 93° |
| 2026-04-14 12:09 | 51.20673 | -0.09393 | 8626 ft | 293 kts | 93° |
| 2026-04-14 12:09 | 51.20670 | -0.06133 | 9262 ft | 298 kts | 93° |
| 2026-04-14 12:10 | 51.20668 | -0.02865 | 9993 ft | 299 kts | 92° |
| 2026-04-14 12:10 | 51.20666 | 0.00533 | 10381 ft | 314 kts | 92° |
| 2026-04-14 12:10 | 51.20617 | 0.04099 | 10431 ft | 338 kts | 94° |
| 2026-04-14 12:10 | 51.20496 | 0.07957 | 10647 ft | 354 kts | 94° |
| 2026-04-14 12:11 | 51.20379 | 0.11918 | 11317 ft | 355 kts | 94° |
| 2026-04-14 12:11 | 51.20322 | 0.15843 | 11869 ft | 359 kts | 92° |
| 2026-04-14 12:11 | 51.20282 | 0.19844 | 12455 ft | 362 kts | 92° |
| 2026-04-14 12:11 | 51.20233 | 0.23838 | 13068 ft | 364 kts | 92° |
| 2026-04-14 12:12 | 51.20171 | 0.27913 | 13591 ft | 369 kts | 93° |
| 2026-04-14 12:12 | 51.20090 | 0.32044 | 14141 ft | 373 kts | 93° |
| 2026-04-14 12:12 | 51.19997 | 0.36189 | 14633 ft | 378 kts | 93° |
| 2026-04-14 12:12 | 51.19891 | 0.40419 | 15228 ft | 386 kts | 93° |
| 2026-04-14 12:13 | 51.19797 | 0.44708 | 16095 ft | 389 kts | 92° |
| 2026-04-14 12:13 | 51.19719 | 0.48989 | 17008 ft | 389 kts | 91° |
| 2026-04-14 12:13 | 51.19636 | 0.53315 | 17874 ft | 392 kts | 91° |
| 2026-04-14 12:13 | 51.19535 | 0.57684 | 18624 ft | 396 kts | 91° |
| 2026-04-14 12:14 | 51.19411 | 0.62109 | 19319 ft | 402 kts | 91° |
| 2026-04-14 12:14 | 51.19269 | 0.66587 | 19985 ft | 408 kts | 91° |
| 2026-04-14 12:14 | 51.19116 | 0.71162 | 20634 ft | 414 kts | 91° |
| 2026-04-14 12:14 | 51.18957 | 0.75784 | 21251 ft | 420 kts | 91° |
| 2026-04-14 12:15 | 51.18790 | 0.80446 | 21860 ft | 425 kts | 91° |
| 2026-04-14 12:15 | 51.18609 | 0.85183 | 22401 ft | 430 kts | 91° |
| 2026-04-14 12:15 | 51.18418 | 0.89908 | 22970 ft | 435 kts | 91° |
| 2026-04-14 12:15 | 51.18216 | 0.94748 | 23561 ft | 440 kts | 91° |
| 2026-04-14 12:16 | 51.18005 | 0.99612 | 24128 ft | 442 kts | 91° |
| 2026-04-14 12:16 | 51.17790 | 1.04528 | 24608 ft | 446 kts | 91° |
| 2026-04-14 12:16 | 51.17565 | 1.09488 | 25088 ft | 451 kts | 91° |
| 2026-04-14 12:16 | 51.17330 | 1.14478 | 25574 ft | 454 kts | 91° |
| 2026-04-14 12:17 | 51.17084 | 1.19527 | 26036 ft | 459 kts | 91° |
| 2026-04-14 12:17 | 51.16826 | 1.24643 | 26488 ft | 463 kts | 91° |
| 2026-04-14 12:17 | 51.16563 | 1.29752 | 26939 ft | 466 kts | 91° |
| 2026-04-14 12:17 | 51.16289 | 1.34907 | 27343 ft | 470 kts | 91° |
| 2026-04-14 12:18 | 51.16013 | 1.40043 | 28311 ft | 457 kts | 90° |
| 2026-04-14 12:18 | 51.15766 | 1.45068 | 29024 ft | 455 kts | 89° |
| 2026-04-14 12:18 | 51.15543 | 1.50112 | 29339 ft | 460 kts | 88° |
| 2026-04-14 12:18 | 51.15319 | 1.55214 | 29745 ft | 463 kts | 88° |
| 2026-04-14 12:19 | 51.15081 | 1.60352 | 30196 ft | 465 kts | 89° |
| 2026-04-14 12:19 | 51.14828 | 1.65487 | 30499 ft | 469 kts | 89° |
| 2026-04-14 12:19 | 51.14568 | 1.70678 | 30892 ft | 469 kts | 89° |
| 2026-04-14 12:19 | 51.14305 | 1.75862 | 31227 ft | 471 kts | 89° |
| 2026-04-14 12:20 | 51.14045 | 1.81061 | 31584 ft | 471 kts | 88° |
| 2026-04-14 12:20 | 51.13784 | 1.86265 | 31844 ft | 475 kts | 88° |
| 2026-04-14 12:20 | 51.13520 | 1.91513 | 32258 ft | 473 kts | 89° |
| 2026-04-14 12:20 | 51.13251 | 1.96686 | 32955 ft | 464 kts | 89° |
| 2026-04-14 12:21 | 51.13073 | 2.00068 | 33257 ft | 463 kts | 89° |
| 2026-04-14 12:21 | 51.12717 | 2.06835 | 33632 ft | 464 kts | 89° |
| 2026-04-14 12:21 | 51.12445 | 2.11937 | 34077 ft | 460 kts | 89° |
| 2026-04-14 12:21 | 51.12172 | 2.16995 | 34395 ft | 460 kts | 89° |
| 2026-04-14 12:22 | 51.11897 | 2.22083 | 34589 ft | 461 kts | 89° |
| 2026-04-14 12:22 | 51.11619 | 2.27175 | 34860 ft | 461 kts | 89° |
| 2026-04-14 12:22 | 51.11432 | 2.30555 | 35040 ft | 461 kts | 89° |
| 2026-04-14 12:22 | 51.11151 | 2.35625 | 35295 ft | 461 kts | 89° |
| 2026-04-14 12:23 | 51.10866 | 2.40720 | 35654 ft | 458 kts | 90° |
| 2026-04-14 12:23 | 51.10581 | 2.45747 | 35951 ft | 457 kts | 90° |
| 2026-04-14 12:23 | 51.10295 | 2.50808 | 36127 ft | 459 kts | 90° |
| 2026-04-14 12:23 | 51.10006 | 2.55865 | 36427 ft | 458 kts | 90° |
| 2026-04-14 12:24 | 51.09716 | 2.60913 | 36660 ft | 458 kts | 90° |
| 2026-04-14 12:24 | 51.09292 | 2.65957 | 36849 ft | 463 kts | 98° |
| 2026-04-14 12:24 | 51.08524 | 2.70928 | 37091 ft | 464 kts | 101° |
| 2026-04-14 12:24 | 51.07636 | 2.75818 | 37440 ft | 461 kts | 103° |
| 2026-04-14 12:25 | 51.06687 | 2.80752 | 37201 ft | 472 kts | 103° |
| 2026-04-14 12:25 | 51.05729 | 2.85781 | 37253 ft | 476 kts | 103° |
| 2026-04-14 12:25 | 51.03880 | 2.95906 | 37215 ft | 481 kts | 102° |
| 2026-04-14 12:26 | 51.02035 | 3.06127 | 37208 ft | 481 kts | 103° |
| 2026-04-14 12:26 | 51.00157 | 3.16326 | 37205 ft | 481 kts | 103° |
| 2026-04-14 12:27 | 50.98267 | 3.26516 | 37199 ft | 482 kts | 103° |
| 2026-04-14 12:27 | 50.96374 | 3.36711 | 37188 ft | 479 kts | 103° |
| 2026-04-14 12:28 | 50.94480 | 3.46848 | 37196 ft | 480 kts | 103° |
| 2026-04-14 12:28 | 50.92572 | 3.57001 | 37198 ft | 480 kts | 103° |
| 2026-04-14 12:29 | 50.90655 | 3.67129 | 37200 ft | 480 kts | 104° |
| 2026-04-14 12:29 | 50.88708 | 3.77188 | 37223 ft | 480 kts | 104° |
| 2026-04-14 12:30 | 50.86745 | 3.87267 | 37214 ft | 479 kts | 104° |
| 2026-04-14 12:30 | 50.84780 | 3.97363 | 37206 ft | 479 kts | 104° |
| 2026-04-14 12:31 | 50.82806 | 4.07442 | 37208 ft | 479 kts | 104° |
| 2026-04-14 12:31 | 50.80819 | 4.17520 | 37204 ft | 479 kts | 104° |
| 2026-04-14 12:32 | 50.78829 | 4.27559 | 37208 ft | 478 kts | 104° |
| 2026-04-14 12:32 | 50.76833 | 4.37587 | 37210 ft | 479 kts | 104° |
| 2026-04-14 12:33 | 50.74825 | 4.47618 | 37210 ft | 478 kts | 104° |
| 2026-04-14 12:33 | 50.72812 | 4.57623 | 37208 ft | 478 kts | 104° |
| 2026-04-14 12:34 | 50.70822 | 4.67635 | 37221 ft | 478 kts | 104° |
| 2026-04-14 12:34 | 50.68915 | 4.77626 | 37204 ft | 475 kts | 104° |
| 2026-04-14 12:35 | 50.66977 | 4.87604 | 37205 ft | 476 kts | 104° |
| 2026-04-14 12:35 | 50.65004 | 4.97507 | 37210 ft | 476 kts | 105° |
| 2026-04-14 12:36 | 50.62937 | 5.07441 | 37206 ft | 477 kts | 105° |
| 2026-04-14 12:36 | 50.60881 | 5.17363 | 37190 ft | 473 kts | 105° |
| 2026-04-14 12:37 | 50.58850 | 5.27191 | 37211 ft | 473 kts | 105° |
| 2026-04-14 12:37 | 50.56802 | 5.37030 | 37199 ft | 473 kts | 106° |
| 2026-04-14 12:38 | 50.53701 | 5.51810 | 37198 ft | 473 kts | 106° |
| 2026-04-14 12:39 | 50.51632 | 5.61618 | 37192 ft | 471 kts | 106° |
| 2026-04-14 12:39 | 50.49744 | 5.71351 | 37194 ft | 468 kts | 103° |
| 2026-04-14 12:40 | 50.47942 | 5.81177 | 36903 ft | 468 kts | 104° |
| 2026-04-14 12:40 | 50.47034 | 5.86032 | 36632 ft | 457 kts | 104° |
| 2026-04-14 12:40 | 50.46140 | 5.90780 | 35998 ft | 457 kts | 103° |
| 2026-04-14 12:40 | 50.45237 | 5.95563 | 35407 ft | 455 kts | 103° |
| 2026-04-14 12:41 | 50.44332 | 6.00340 | 34739 ft | 457 kts | 103° |
| 2026-04-14 12:41 | 50.43425 | 6.05119 | 34192 ft | 457 kts | 103° |
| 2026-04-14 12:41 | 50.42515 | 6.09892 | 33548 ft | 455 kts | 103° |
| 2026-04-14 12:41 | 50.41606 | 6.14643 | 32918 ft | 456 kts | 103° |
| 2026-04-14 12:42 | 50.40696 | 6.19390 | 32388 ft | 455 kts | 103° |
| 2026-04-14 12:42 | 50.39781 | 6.24164 | 31718 ft | 458 kts | 103° |
| 2026-04-14 12:42 | 50.38863 | 6.28935 | 31132 ft | 457 kts | 103° |
| 2026-04-14 12:42 | 50.37947 | 6.33688 | 30535 ft | 456 kts | 103° |
| 2026-04-14 12:43 | 50.37027 | 6.38451 | 29833 ft | 457 kts | 103° |
| 2026-04-14 12:43 | 50.36127 | 6.43195 | 29323 ft | 456 kts | 102° |
| 2026-04-14 12:43 | 50.35535 | 6.48050 | 28767 ft | 452 kts | 93° |
| 2026-04-14 12:43 | 50.35381 | 6.52948 | 28084 ft | 447 kts | 88° |
| 2026-04-14 12:44 | 50.35371 | 6.57708 | 27521 ft | 440 kts | 88° |
| 2026-04-14 12:44 | 50.35241 | 6.62535 | 26984 ft | 436 kts | 92° |
| 2026-04-14 12:44 | 50.34952 | 6.67208 | 26353 ft | 436 kts | 95° |
| 2026-04-14 12:45 | 50.34193 | 6.76542 | 25258 ft | 428 kts | 95° |
| 2026-04-14 12:45 | 50.33870 | 6.81165 | 24639 ft | 426 kts | 94° |
| 2026-04-14 12:45 | 50.33600 | 6.85754 | 24114 ft | 421 kts | 95° |
| 2026-04-14 12:45 | 50.32911 | 6.90183 | 23543 ft | 420 kts | 112° |
| 2026-04-14 12:46 | 50.31641 | 6.94272 | 22989 ft | 417 kts | 117° |
| 2026-04-14 12:46 | 50.30253 | 6.98209 | 22472 ft | 411 kts | 120° |
| 2026-04-14 12:46 | 50.28822 | 7.02068 | 21875 ft | 408 kts | 119° |
| 2026-04-14 12:46 | 50.27511 | 7.05975 | 21371 ft | 405 kts | 115° |
| 2026-04-14 12:47 | 50.26364 | 7.09970 | 20852 ft | 401 kts | 112° |
| 2026-04-14 12:47 | 50.25283 | 7.13975 | 20280 ft | 398 kts | 112° |
| 2026-04-14 12:47 | 50.24180 | 7.17918 | 19797 ft | 394 kts | 114° |
| 2026-04-14 12:47 | 50.23032 | 7.21784 | 19280 ft | 391 kts | 115° |
| 2026-04-14 12:48 | 50.21857 | 7.25602 | 18730 ft | 389 kts | 115° |
| 2026-04-14 12:48 | 50.20689 | 7.29389 | 18241 ft | 384 kts | 115° |
| 2026-04-14 12:48 | 50.19546 | 7.33140 | 17738 ft | 382 kts | 115° |
| 2026-04-14 12:48 | 50.18485 | 7.36923 | 17237 ft | 380 kts | 110° |
| 2026-04-14 12:49 | 50.17597 | 7.40796 | 16715 ft | 377 kts | 107° |
| 2026-04-14 12:49 | 50.16793 | 7.44651 | 16235 ft | 372 kts | 107° |
| 2026-04-14 12:49 | 50.15968 | 7.48465 | 15739 ft | 370 kts | 109° |
| 2026-04-14 12:49 | 50.15086 | 7.52233 | 15255 ft | 369 kts | 110° |
| 2026-04-14 12:50 | 50.14170 | 7.55956 | 14758 ft | 363 kts | 110° |
| 2026-04-14 12:50 | 50.12414 | 7.63133 | 13786 ft | 346 kts | 110° |
| 2026-04-14 12:50 | 50.11576 | 7.66591 | 13393 ft | 336 kts | 111° |
| 2026-04-14 12:51 | 50.10537 | 7.69742 | 13191 ft | 320 kts | 122° |
| 2026-04-14 12:51 | 50.09304 | 7.72638 | 12662 ft | 317 kts | 125° |
| 2026-04-14 12:51 | 50.08062 | 7.75388 | 12396 ft | 307 kts | 125° |
| 2026-04-14 12:51 | 50.06847 | 7.78087 | 11948 ft | 304 kts | 125° |
| 2026-04-14 12:52 | 50.05641 | 7.80771 | 11547 ft | 300 kts | 126° |
| 2026-04-14 12:52 | 50.04455 | 7.83425 | 11137 ft | 297 kts | 126° |
| 2026-04-14 12:52 | 50.03276 | 7.86053 | 10715 ft | 295 kts | 126° |
| 2026-04-14 12:52 | 50.02115 | 7.88654 | 10340 ft | 291 kts | 126° |
| 2026-04-14 12:53 | 50.00972 | 7.91228 | 9964 ft | 288 kts | 123° |
| 2026-04-14 12:53 | 49.99920 | 7.93853 | 9553 ft | 284 kts | 123° |
| 2026-04-14 12:53 | 49.98856 | 7.96409 | 9154 ft | 281 kts | 123° |
| 2026-04-14 12:53 | 49.97783 | 7.98939 | 8755 ft | 278 kts | 123° |
| 2026-04-14 12:54 | 49.96703 | 8.01424 | 8371 ft | 277 kts | 123° |
| 2026-04-14 12:54 | 49.95607 | 8.03874 | 8002 ft | 275 kts | 123° |
| 2026-04-14 12:54 | 49.94678 | 8.06430 | 7590 ft | 271 kts | 102° |
| 2026-04-14 12:54 | 49.94637 | 8.09268 | 7299 ft | 258 kts | 82° |
| 2026-04-14 12:55 | 49.94703 | 8.11971 | 7016 ft | 245 kts | 87° |
| 2026-04-14 12:55 | 49.95086 | 8.14447 | 6610 ft | 232 kts | 63° |
| 2026-04-14 12:55 | 49.95779 | 8.16673 | 6184 ft | 227 kts | 64° |
| 2026-04-14 12:55 | 49.96298 | 8.18943 | 5705 ft | 220 kts | 70° |
| 2026-04-14 12:56 | 49.96792 | 8.21138 | 5166 ft | 209 kts | 66° |
| 2026-04-14 12:56 | 49.97317 | 8.23165 | 4661 ft | 197 kts | 66° |
| 2026-04-14 12:56 | 49.97785 | 8.25112 | 4177 ft | 189 kts | 67° |
| 2026-04-14 12:56 | 49.98234 | 8.26999 | 3724 ft | 183 kts | 67° |
| 2026-04-14 12:57 | 49.98678 | 8.28813 | 3333 ft | 180 kts | 66° |
| 2026-04-14 12:57 | 49.99113 | 8.30611 | 3095 ft | 177 kts | 67° |
| 2026-04-14 12:57 | 49.99549 | 8.32423 | 2844 ft | 181 kts | 68° |
| 2026-04-14 12:57 | 49.99993 | 8.34259 | 2578 ft | 181 kts | 67° |
| 2026-04-14 12:58 | 50.00425 | 8.36055 | 2319 ft | 173 kts | 67° |
| 2026-04-14 12:58 | 50.00831 | 8.37741 | 2072 ft | 160 kts | 67° |
| 2026-04-14 12:58 | 50.01212 | 8.39323 | 1844 ft | 150 kts | 67° |
| 2026-04-14 12:58 | 50.01567 | 8.40800 | 1598 ft | 140 kts | 66° |
| 2026-04-14 12:59 | 50.01896 | 8.42169 | 1393 ft | 132 kts | 68° |
| 2026-04-14 12:59 | 50.02209 | 8.43463 | 1207 ft | 126 kts | 65° |
| 2026-04-14 12:59 | 50.02529 | 8.44777 | 1063 ft | 136 kts | 66° |
| 2026-04-14 12:59 | 50.02853 | 8.46171 | 843 ft | 137 kts | 67° |
| 2026-04-14 13:00 | 50.03182 | 8.47561 | 666 ft | 135 kts | 66° |
| 2026-04-14 13:00 | 50.03518 | 8.48923 | 470 ft | 137 kts | 65° |
| 2026-04-14 13:00 | 50.03841 | 8.50278 | 321 ft | 128 kts | 66° |
| 2026-04-14 13:00 | 50.04116 | 8.51421 | 330 ft | 97 kts | 70° |
| 2026-04-14 13:01 | 50.04312 | 8.52241 | 336 ft | 61 kts | 70° |
| 2026-04-14 13:01 | 50.04393 | 8.52658 | 351 ft | 26 kts | 84° |
| 2026-04-14 13:01 | 50.04383 | 8.52895 | 358 ft | 21 kts | 99° |
| 2026-04-14 13:01 | 50.04361 | 8.53098 | 354 ft | 15 kts | 99° |
| 2026-04-14 13:02 | 50.04348 | 8.53238 | 361 ft | 11 kts | 92° |
| 2026-04-14 13:02 | 50.04361 | 8.53349 | 370 ft | 10 kts | 70° |
| 2026-04-14 13:02 | 50.04386 | 8.53454 | 372 ft | 11 kts | 71° |
| 2026-04-14 13:02 | 50.04401 | 8.53608 | 374 ft | 18 kts | 84° |
| 2026-04-14 13:03 | 50.04416 | 8.53829 | 374 ft | 22 kts | 84° |
| 2026-04-14 13:03 | 50.04431 | 8.54053 | 374 ft | 18 kts | 84° |
| 2026-04-14 13:03 | 50.04443 | 8.54243 | 374 ft | 17 kts | 84° |
| 2026-04-14 13:03 | 50.04453 | 8.54425 | 370 ft | 16 kts | 90° |
| 2026-04-14 13:04 | 50.04427 | 8.54597 | 367 ft | 13 kts | 115° |
| 2026-04-14 13:04 | 50.04371 | 8.54710 | 359 ft | 14 kts | 138° |
| 2026-04-14 13:04 | 50.04292 | 8.54785 | 354 ft | 12 kts | 158° |
| 2026-04-14 13:04 | 50.04199 | 8.54835 | 354 ft | 16 kts | 160° |
| 2026-04-14 13:05 | 50.04107 | 8.54888 | 349 ft | 8 kts | 160° |
| 2026-04-14 13:05 | 50.04075 | 8.54906 | 349 ft | 1 kts | 159° |
| 2026-04-14 13:05 | 50.04074 | 8.54907 | 349 ft | 0 kts | 159° |
| 2026-04-14 13:07 | 50.04069 | 8.54910 | 355 ft | 3 kts | 159° |
| 2026-04-14 13:07 | 50.04033 | 8.54934 | 353 ft | 8 kts | 146° |
| 2026-04-14 13:07 | 50.04024 | 8.55039 | 352 ft | 14 kts | 70° |
| 2026-04-14 13:07 | 50.04067 | 8.55219 | 353 ft | 20 kts | 69° |
| 2026-04-14 13:08 | 50.04117 | 8.55430 | 354 ft | 21 kts | 69° |
| 2026-04-14 13:08 | 50.04170 | 8.55648 | 356 ft | 21 kts | 69° |
| 2026-04-14 13:08 | 50.04220 | 8.55861 | 354 ft | 21 kts | 70° |
| 2026-04-14 13:08 | 50.04270 | 8.56068 | 357 ft | 20 kts | 70° |
| 2026-04-14 13:09 | 50.04318 | 8.56269 | 360 ft | 20 kts | 69° |
| 2026-04-14 13:09 | 50.04365 | 8.56465 | 359 ft | 19 kts | 70° |
| 2026-04-14 13:09 | 50.04410 | 8.56653 | 361 ft | 18 kts | 69° |
| 2026-04-14 13:09 | 50.04453 | 8.56833 | 360 ft | 17 kts | 70° |
| 2026-04-14 13:10 | 50.04495 | 8.57011 | 357 ft | 19 kts | 70° |
| 2026-04-14 13:10 | 50.04538 | 8.57192 | 360 ft | 17 kts | 70° |
| 2026-04-14 13:10 | 50.04573 | 8.57335 | 360 ft | 10 kts | 66° |
| 2026-04-14 13:10 | 50.04616 | 8.57351 | 359 ft | 6 kts | 309° |
| 2026-04-14 13:11 | 50.04635 | 8.57296 | 357 ft | 5 kts | 298° |
| 2026-04-14 13:11 | 50.04647 | 8.57262 | 358 ft | 0 kts | 297° |
| 2026-04-14 13:11 | 50.04649 | 8.57256 | 357 ft | 0 kts | 297° |